KSNA/SNA METAR and TAF weather

Enter ICAO airport designator
Station Type Date Time Source
KSNA METAR 2019/06/17 03:53 UTC NOAA

KSNA 170353Z 00000KT 6SM BR FEW009 OVC013 18/14 A2987 RMK AO2 SLP116 T01780139


Station Type Date Time Source
KSNA Decoded METAR 2019/06/17 03:53 UTC NOAA

SANTA ANA WAYNE ORANGE CTY, CA, United States (KSNA) 33-41N 117-52W 15M
Jun 16, 2019 - 11:53 PM EDT / 2019.06.17 0353 UTC
Wind: Calm:0
Visibility: 6 mile(s):0
Sky conditions: overcast
Weather: mist
Temperature: 64.0 F (17.8 C)
Dew Point: 57.0 F (13.9 C)
Relative Humidity: 77%
Pressure (altimeter): 29.87 in. Hg (1011 hPa)
ob: KSNA 170353Z 00000KT 6SM BR FEW009 OVC013 18/14 A2987 RMK AO2 SLP116 T01780139
cycle: 4

Station Type Date Time Source
KSNA TAF 2019/06/16 18:30 UTC NOAA

TAF KSNA 161728Z 1618/1718 VRB04KT P6SM BKN015
FM162000 22009KT P6SM BKN020
TEMPO 1621/1701 SCT020
FM170300 VRB05KT P6SM OVC015

Example: see airport list